Time;durP1;ratioP1;P1;durP2;ratioP2;P2;SDS_P1;SDS_P2;PMS_P1;PMS_P2;Temp;Humidity;BMP_temperature;BMP_pressure;BME280_temperature;BME280_humidity;BME280_pressure;Samples;Min_cycle;Max_cycle;Signal;HPM_P1;HPM_P2
2022/10/08 00:01:06;;;;;;;14.55;8.82;;;;;;;;;;5054743;28;20254;-59
2022/10/08 00:03:37;;;;;;;11.40;8.48;;;;;;;;;;5055045;28;20556;-60
2022/10/08 00:06:14;;;;;;;13.82;8.73;;;;;;;;;;5054800;28;20224;-59
2022/10/08 00:08:45;;;;;;;14.65;9.27;;;;;;;;;;5055099;28;20242;-60
2022/10/08 00:11:23;;;;;;;12.15;8.77;;;;;;;;;;5054995;28;20294;-61
2022/10/08 00:13:53;;;;;;;13.15;8.70;;;;;;;;;;5054848;28;20643;-59
2022/10/08 00:16:22;;;;;;;14.25;9.07;;;;;;;;;;5054069;28;20318;-60
2022/10/08 00:18:52;;;;;;;21.42;9.75;;;;;;;;;;5055352;28;20200;-60
2022/10/08 00:21:28;;;;;;;11.98;8.48;;;;;;;;;;5054957;28;20226;-61
2022/10/08 00:23:56;;;;;;;13.27;8.88;;;;;;;;;;5054767;28;20246;-60
2022/10/08 00:26:25;;;;;;;13.35;8.85;;;;;;;;;;5020065;28;20230;-60
2022/10/08 00:28:54;;;;;;;15.10;8.82;;;;;;;;;;5054798;28;20650;-59
2022/10/08 00:31:24;;;;;;;12.48;8.88;;;;;;;;;;5054545;28;20568;-60
2022/10/08 00:33:53;;;;;;;12.98;8.88;;;;;;;;;;5054605;28;20615;-59
2022/10/08 00:36:22;;;;;;;19.35;8.98;;;;;;;;;;5054723;28;20252;-60
2022/10/08 00:38:54;;;;;;;15.07;9.48;;;;;;;;;;5054287;28;20204;-60
2022/10/08 00:41:24;;;;;;;15.50;9.57;;;;;;;;;;5054770;28;20200;-61
2022/10/08 00:43:54;;;;;;;14.45;8.82;;;;;;;;;;5054641;28;20211;-60
2022/10/08 00:46:39;;;;;;;14.25;8.68;;;;;;;;;;5054530;28;20291;-60
2022/10/08 00:49:10;;;;;;;16.33;8.40;;;;;;;;;;5054466;28;20586;-62
2022/10/08 00:51:41;;;;;;;14.27;8.75;;;;;;;;;;5054790;28;20204;-60
2022/10/08 00:54:09;;;;;;;10.15;7.63;;;;;;;;;;5053549;28;20208;-61
2022/10/08 00:56:37;;;;;;;10.85;8.13;;;;;;;;;;5053603;28;20218;-60
2022/10/08 00:59:05;;;;;;;14.23;9.07;;;;;;;;;;5054462;28;20534;-60
2022/10/08 01:01:32;;;;;;;15.15;8.60;;;;;;;;;;5053314;28;20208;-58
2022/10/08 01:04:04;;;;;;;13.80;8.93;;;;;;;;;;5053984;28;20598;-60
2022/10/08 01:07:10;;;;;;;11.45;8.15;;;;;;;;;;5053727;28;20263;-60
2022/10/08 01:09:39;;;;;;;12.20;8.55;;;;;;;;;;5013120;28;20371;-60
2022/10/08 01:12:30;;;;;;;13.70;9.63;;;;;;;;;;5013071;28;20529;-60
2022/10/08 01:14:59;;;;;;;14.52;9.43;;;;;;;;;;5013386;28;20224;-60
2022/10/08 01:17:49;;;;;;;12.40;9.65;;;;;;;;;;4996602;28;20229;-60
2022/10/08 01:20:31;;;;;;;16.08;10.70;;;;;;;;;;5012671;28;20205;-60
2022/10/08 01:23:04;;;;;;;15.43;10.30;;;;;;;;;;5012874;28;20201;-59
2022/10/08 01:25:53;;;;;;;19.92;11.85;;;;;;;;;;4996611;28;20233;-60
2022/10/08 01:28:21;;;;;;;16.83;11.23;;;;;;;;;;5016257;28;20200;-60
2022/10/08 01:30:53;;;;;;;17.02;11.48;;;;;;;;;;5016474;28;20320;-60
2022/10/08 01:33:25;;;;;;;15.30;10.75;;;;;;;;;;5000179;28;20206;-60
2022/10/08 01:35:56;;;;;;;16.52;10.70;;;;;;;;;;5000283;28;20201;-60
2022/10/08 01:38:26;;;;;;;18.58;10.20;;;;;;;;;;5016748;28;20206;-61
2022/10/08 01:40:57;;;;;;;15.15;10.68;;;;;;;;;;5000100;28;20220;-61
2022/10/08 01:43:29;;;;;;;19.95;11.18;;;;;;;;;;5000210;28;20690;-61
2022/10/08 01:46:01;;;;;;;16.92;11.35;;;;;;;;;;5014828;28;20235;-60
2022/10/08 01:48:32;;;;;;;13.77;10.68;;;;;;;;;;5057601;28;20195;-60
2022/10/08 01:51:32;;;;;;;18.52;11.73;;;;;;;;;;5056878;28;20176;-61
2022/10/08 01:54:02;;;;;;;14.85;11.15;;;;;;;;;;5035716;28;20220;-61
2022/10/08 01:56:31;;;;;;;18.33;11.77;;;;;;;;;;5036241;28;20547;-61
2022/10/08 01:59:05;;;;;;;21.40;11.55;;;;;;;;;;5035318;28;20254;-61
2022/10/08 02:01:36;;;;;;;18.33;11.52;;;;;;;;;;5035556;28;20619;-60
2022/10/08 02:06:55;;;;;;;22.10;12.43;;;;;;;;;;5035853;28;20213;-61
2022/10/08 02:09:24;;;;;;;17.70;12.15;;;;;;;;;;5035524;28;20351;-60
2022/10/08 02:11:52;;;;;;;18.73;12.00;;;;;;;;;;5035310;28;20213;-61
2022/10/08 02:14:24;;;;;;;14.50;11.02;;;;;;;;;;5035513;28;20730;-61
2022/10/08 02:17:00;;;;;;;16.38;11.65;;;;;;;;;;5035383;28;20631;-61
2022/10/08 02:19:47;;;;;;;16.38;11.52;;;;;;;;;;5019478;28;20444;-61
2022/10/08 02:22:17;;;;;;;17.95;11.65;;;;;;;;;;5035306;28;20337;-61
2022/10/08 02:24:52;;;;;;;18.55;11.93;;;;;;;;;;5035133;28;20635;-60
2022/10/08 02:27:28;;;;;;;23.05;11.65;;;;;;;;;;5035290;28;20234;-62
2022/10/08 02:30:15;;;;;;;18.08;12.02;;;;;;;;;;5048644;28;20203;-60
2022/10/08 02:32:58;;;;;;;18.38;11.85;;;;;;;;;;5055748;28;20234;-60
2022/10/08 02:35:52;;;;;;;16.20;11.98;;;;;;;;;;5056536;28;20204;-60
2022/10/08 02:38:23;;;;;;;18.30;12.95;;;;;;;;;;5056025;28;20610;-63
2022/10/08 02:40:52;;;;;;;18.42;12.90;;;;;;;;;;5055833;28;20185;-60
2022/10/08 02:43:23;;;;;;;15.68;12.38;;;;;;;;;;5056511;28;20314;-61
2022/10/08 02:45:58;;;;;;;23.33;12.68;;;;;;;;;;5056808;28;20549;-60
2022/10/08 02:48:30;;;;;;;17.80;12.80;;;;;;;;;;5055241;28;20626;-60
2022/10/08 02:51:01;;;;;;;17.63;13.02;;;;;;;;;;5056178;28;20201;-60
2022/10/08 02:53:28;;;;;;;19.63;13.05;;;;;;;;;;5055390;28;20703;-60
2022/10/08 02:56:03;;;;;;;15.65;12.40;;;;;;;;;;5056503;28;20555;-58
2022/10/08 02:58:30;;;;;;;17.88;13.10;;;;;;;;;;5055989;28;20545;-62
2022/10/08 03:01:18;;;;;;;21.65;13.60;;;;;;;;;;5053382;28;20276;-61
2022/10/08 03:03:48;;;;;;;21.25;12.45;;;;;;;;;;5037199;28;20253;-60
2022/10/08 03:06:17;;;;;;;19.25;12.70;;;;;;;;;;5054689;28;20208;-61
2022/10/08 03:08:47;;;;;;;16.85;12.38;;;;;;;;;;5053751;28;20219;-59
2022/10/08 03:11:15;;;;;;;19.42;13.27;;;;;;;;;;5052752;28;20203;-62
2022/10/08 03:13:45;;;;;;;19.85;12.75;;;;;;;;;;5054305;28;20302;-59
2022/10/08 03:16:15;;;;;;;17.83;12.18;;;;;;;;;;5051871;28;20204;-61
2022/10/08 03:18:43;;;;;;;16.85;12.68;;;;;;;;;;5053332;28;20563;-60
2022/10/08 03:21:12;;;;;;;22.58;13.40;;;;;;;;;;5049629;28;20200;-60
2022/10/08 03:23:39;;;;;;;19.75;13.82;;;;;;;;;;5035855;28;20196;-62
2022/10/08 03:26:06;;;;;;;18.05;12.88;;;;;;;;;;5054294;28;20220;-61
2022/10/08 03:28:33;;;;;;;18.58;12.77;;;;;;;;;;5054652;28;20334;-61
2022/10/08 03:31:04;;;;;;;22.13;13.73;;;;;;;;;;5054087;28;20733;-62
2022/10/08 03:33:32;;;;;;;20.38;13.43;;;;;;;;;;5051682;28;20965;-62
2022/10/08 03:35:59;;;;;;;21.55;13.48;;;;;;;;;;5053932;28;20196;-62
2022/10/08 03:38:26;;;;;;;20.92;13.60;;;;;;;;;;5053773;28;20554;-64
2022/10/08 03:40:55;;;;;;;18.48;13.43;;;;;;;;;;5054385;28;20192;-59
2022/10/08 03:43:22;;;;;;;23.88;14.35;;;;;;;;;;5054053;28;20192;-58
2022/10/08 03:45:51;;;;;;;18.02;13.38;;;;;;;;;;5051117;28;20192;-60
2022/10/08 03:48:20;;;;;;;19.77;12.75;;;;;;;;;;5054819;28;20246;-60
2022/10/08 03:50:55;;;;;;;19.42;13.35;;;;;;;;;;5055325;28;20196;-60
2022/10/08 03:53:23;;;;;;;26.25;13.73;;;;;;;;;;5055352;28;20246;-63
2022/10/08 03:55:50;;;;;;;20.83;13.30;;;;;;;;;;5054844;28;20206;-59
2022/10/08 03:58:17;;;;;;;18.02;13.68;;;;;;;;;;5055165;28;20206;-60
2022/10/08 04:00:55;;;;;;;20.95;13.82;;;;;;;;;;5054016;28;20236;-60
2022/10/08 04:03:22;;;;;;;20.40;14.05;;;;;;;;;;5055150;28;20508;-60
2022/10/08 04:05:49;;;;;;;20.88;13.75;;;;;;;;;;5054924;28;20543;-60
2022/10/08 04:08:16;;;;;;;18.55;13.85;;;;;;;;;;5054657;28;20228;-59
2022/10/08 04:10:43;;;;;;;19.95;13.65;;;;;;;;;;5054514;28;20307;-59
2022/10/08 04:13:10;;;;;;;17.58;12.73;;;;;;;;;;5054443;28;20211;-60
2022/10/08 04:15:37;;;;;;;20.52;14.23;;;;;;;;;;5054408;28;20277;-59
2022/10/08 04:18:05;;;;;;;16.52;12.10;;;;;;;;;;5054623;28;20511;-60
2022/10/08 04:20:33;;;;;;;20.40;13.18;;;;;;;;;;5054341;28;20207;-59
2022/10/08 04:22:59;;;;;;;19.75;13.55;;;;;;;;;;5054511;28;20212;-60
2022/10/08 04:25:26;;;;;;;17.00;13.05;;;;;;;;;;5054324;28;20647;-59
2022/10/08 04:27:53;;;;;;;17.90;12.38;;;;;;;;;;5054214;28;20223;-59
2022/10/08 04:30:20;;;;;;;18.35;12.52;;;;;;;;;;5054611;28;20204;-59
2022/10/08 04:32:47;;;;;;;19.50;13.15;;;;;;;;;;5054224;28;20694;-61
2022/10/08 04:35:15;;;;;;;19.38;13.18;;;;;;;;;;5054195;28;20211;-60
2022/10/08 04:37:42;;;;;;;19.45;13.55;;;;;;;;;;5054329;28;20295;-61
2022/10/08 04:40:09;;;;;;;18.08;13.15;;;;;;;;;;5054319;28;20216;-60
2022/10/08 04:42:36;;;;;;;24.40;14.13;;;;;;;;;;5054075;28;20639;-60
2022/10/08 04:45:03;;;;;;;17.98;12.88;;;;;;;;;;5054406;28;20213;-60
2022/10/08 04:47:30;;;;;;;20.02;13.13;;;;;;;;;;5054059;28;20281;-60
2022/10/08 04:49:57;;;;;;;17.25;12.93;;;;;;;;;;5054232;28;20207;-60
2022/10/08 04:52:24;;;;;;;17.90;12.48;;;;;;;;;;5054148;28;20294;-60
2022/10/08 04:54:51;;;;;;;18.38;13.02;;;;;;;;;;5052548;28;20680;-59
2022/10/08 04:57:18;;;;;;;19.05;12.77;;;;;;;;;;5049863;28;20557;-59
2022/10/08 04:59:44;;;;;;;17.73;12.13;;;;;;;;;;5053560;28;20263;-60
2022/10/08 05:02:32;;;;;;;20.05;13.38;;;;;;;;;;5055377;28;20282;-62
2022/10/08 05:04:59;;;;;;;22.58;12.63;;;;;;;;;;5057687;28;20239;-59
2022/10/08 05:07:28;;;;;;;18.45;12.32;;;;;;;;;;5056890;28;20228;-59
2022/10/08 05:09:55;;;;;;;17.38;12.88;;;;;;;;;;5057162;28;20239;-61
2022/10/08 05:12:22;;;;;;;17.10;13.10;;;;;;;;;;5057166;28;20358;-60
2022/10/08 05:14:48;;;;;;;20.75;13.45;;;;;;;;;;5057690;28;20223;-61
2022/10/08 05:17:16;;;;;;;16.88;13.23;;;;;;;;;;5057116;28;20235;-60
2022/10/08 05:19:42;;;;;;;22.30;13.52;;;;;;;;;;5057603;28;20289;-60
2022/10/08 05:22:09;;;;;;;19.52;13.55;;;;;;;;;;5057153;28;20628;-60
2022/10/08 05:24:36;;;;;;;22.65;13.48;;;;;;;;;;5055484;28;20707;-60
2022/10/08 05:27:03;;;;;;;17.73;13.18;;;;;;;;;;5056556;28;20239;-61
2022/10/08 05:29:30;;;;;;;19.20;12.88;;;;;;;;;;5056202;28;20269;-63
2022/10/08 05:31:58;;;;;;;19.38;13.55;;;;;;;;;;5055944;28;20235;-60
2022/10/08 05:34:25;;;;;;;21.55;13.07;;;;;;;;;;5055889;28;20277;-60
2022/10/08 05:36:51;;;;;;;19.05;13.75;;;;;;;;;;5055985;28;20314;-60
2022/10/08 05:39:19;;;;;;;18.20;12.80;;;;;;;;;;5055685;28;20227;-59
2022/10/08 05:41:45;;;;;;;20.67;13.55;;;;;;;;;;5056136;28;20270;-60
2022/10/08 05:44:12;;;;;;;22.83;12.82;;;;;;;;;;5055797;28;20227;-60
2022/10/08 05:46:39;;;;;;;22.73;13.88;;;;;;;;;;5055350;28;20242;-60
2022/10/08 05:49:08;;;;;;;18.48;13.45;;;;;;;;;;5055345;28;20220;-61
2022/10/08 05:51:37;;;;;;;20.48;13.63;;;;;;;;;;5055001;28;20682;-60
2022/10/08 05:54:04;;;;;;;19.17;13.43;;;;;;;;;;5053045;28;20220;-61
2022/10/08 05:56:31;;;;;;;20.02;13.68;;;;;;;;;;5053349;28;20220;-60
2022/10/08 05:58:58;;;;;;;17.45;12.77;;;;;;;;;;5054649;28;20239;-59
2022/10/08 06:01:30;;;;;;;18.92;12.45;;;;;;;;;;5054722;28;20273;-60
2022/10/08 06:04:02;;;;;;;17.35;13.32;;;;;;;;;;5053781;28;20232;-60
2022/10/08 06:06:35;;;;;;;20.10;13.80;;;;;;;;;;5054700;28;20220;-60
2022/10/08 06:09:03;;;;;;;20.13;14.80;;;;;;;;;;5054470;28;20227;-60
2022/10/08 06:11:33;;;;;;;21.40;14.15;;;;;;;;;;5051983;28;20250;-62
2022/10/08 06:14:01;;;;;;;17.17;12.95;;;;;;;;;;5054318;28;20220;-59
2022/10/08 06:16:28;;;;;;;18.48;13.30;;;;;;;;;;5053761;28;20663;-60
2022/10/08 06:18:56;;;;;;;19.42;13.02;;;;;;;;;;5055495;28;20343;-60
2022/10/08 06:21:25;;;;;;;18.20;13.80;;;;;;;;;;5052305;28;20633;-61
2022/10/08 06:23:54;;;;;;;18.10;13.55;;;;;;;;;;5053917;28;20219;-61
2022/10/08 06:26:22;;;;;;;24.27;14.05;;;;;;;;;;5054450;28;20262;-61
2022/10/08 06:28:49;;;;;;;16.83;12.98;;;;;;;;;;5054550;28;20231;-61
2022/10/08 06:31:17;;;;;;;17.33;13.45;;;;;;;;;;5054912;28;20252;-60
2022/10/08 06:33:44;;;;;;;21.98;12.93;;;;;;;;;;5054783;28;20227;-61
2022/10/08 06:36:23;;;;;;;21.25;13.55;;;;;;;;;;5056173;28;20550;-60
2022/10/08 06:38:55;;;;;;;18.30;13.25;;;;;;;;;;5053590;28;20226;-60
2022/10/08 06:41:23;;;;;;;23.48;13.57;;;;;;;;;;5049490;28;20220;-68
2022/10/08 06:43:50;;;;;;;16.20;12.45;;;;;;;;;;5055463;28;20224;-62
2022/10/08 06:46:18;;;;;;;20.67;13.02;;;;;;;;;;5048641;28;20290;-58
2022/10/08 06:48:45;;;;;;;20.13;12.95;;;;;;;;;;5034052;28;20660;-59
2022/10/08 06:51:14;;;;;;;17.88;13.38;;;;;;;;;;5034737;28;20271;-60
2022/10/08 06:53:42;;;;;;;21.67;13.77;;;;;;;;;;5034755;28;20229;-59
2022/10/08 06:56:13;;;;;;;19.70;13.63;;;;;;;;;;5035060;28;20324;-64
2022/10/08 06:58:42;;;;;;;20.50;14.20;;;;;;;;;;5034745;28;20225;-61
2022/10/08 07:01:19;;;;;;;18.73;13.88;;;;;;;;;;5034832;28;20240;-60
2022/10/08 07:03:51;;;;;;;21.13;13.93;;;;;;;;;;5036078;28;20231;-59
2022/10/08 07:06:18;;;;;;;18.98;14.23;;;;;;;;;;5035952;28;20216;-59
2022/10/08 07:08:46;;;;;;;19.35;14.23;;;;;;;;;;5038881;28;20672;-58
2022/10/08 07:11:15;;;;;;;16.98;13.05;;;;;;;;;;5048250;28;20211;-61
2022/10/08 07:13:43;;;;;;;20.75;14.77;;;;;;;;;;5056105;28;20208;-60
2022/10/08 07:16:13;;;;;;;19.30;14.13;;;;;;;;;;5055513;28;20200;-59
2022/10/08 07:18:48;;;;;;;19.10;13.68;;;;;;;;;;5055622;28;20204;-59
2022/10/08 07:21:16;;;;;;;21.95;14.88;;;;;;;;;;5054812;28;20654;-62
2022/10/08 07:23:44;;;;;;;23.27;14.07;;;;;;;;;;5055971;28;20238;-57
2022/10/08 07:26:16;;;;;;;19.23;14.85;;;;;;;;;;5053477;28;20277;-60
2022/10/08 07:28:52;;;;;;;22.33;15.75;;;;;;;;;;5053504;28;20234;-59
2022/10/08 07:31:21;;;;;;;18.02;14.60;;;;;;;;;;5050294;28;20195;-60
2022/10/08 07:33:48;;;;;;;19.60;15.23;;;;;;;;;;5038298;28;20212;-60
2022/10/08 07:36:20;;;;;;;20.65;15.43;;;;;;;;;;5037331;28;20200;-59
2022/10/08 07:38:53;;;;;;;25.02;16.08;;;;;;;;;;5055340;28;20635;-56
2022/10/08 07:41:20;;;;;;;18.85;15.55;;;;;;;;;;5054828;28;20192;-57
2022/10/08 07:43:51;;;;;;;19.80;14.63;;;;;;;;;;5055121;28;20222;-59
2022/10/08 07:46:19;;;;;;;22.27;15.30;;;;;;;;;;5054520;28;20219;-58
2022/10/08 07:48:46;;;;;;;21.08;15.80;;;;;;;;;;5035139;28;20228;-59
2022/10/08 07:51:18;;;;;;;22.70;15.75;;;;;;;;;;5036664;28;20270;-56
2022/10/08 07:53:45;;;;;;;19.92;15.05;;;;;;;;;;5054378;28;20256;-58
2022/10/08 07:56:14;;;;;;;23.70;16.80;;;;;;;;;;5054770;28;20313;-57
2022/10/08 07:58:41;;;;;;;24.63;15.85;;;;;;;;;;5054495;28;20683;-57
2022/10/08 08:01:15;;;;;;;22.30;16.17;;;;;;;;;;5054528;28;20212;-57
2022/10/08 08:03:42;;;;;;;23.80;16.77;;;;;;;;;;5054792;28;20189;-58
2022/10/08 08:06:12;;;;;;;22.20;14.98;;;;;;;;;;5054465;28;20314;-58
2022/10/08 08:08:41;;;;;;;19.17;15.43;;;;;;;;;;5054294;28;20328;-62
2022/10/08 08:11:09;;;;;;;23.58;16.10;;;;;;;;;;5054126;28;20269;-59
2022/10/08 08:13:38;;;;;;;20.17;15.35;;;;;;;;;;5034886;28;20200;-58
2022/10/08 08:16:08;;;;;;;24.33;15.93;;;;;;;;;;5039644;28;20642;-57
2022/10/08 08:18:39;;;;;;;23.45;16.85;;;;;;;;;;5054715;28;20187;-60
2022/10/08 08:21:09;;;;;;;20.92;15.35;;;;;;;;;;5053556;28;20696;-58
2022/10/08 08:23:42;;;;;;;27.13;14.90;;;;;;;;;;5054023;28;20208;-58
2022/10/08 08:26:16;;;;;;;20.85;14.85;;;;;;;;;;5053942;28;20181;-57
2022/10/08 08:28:43;;;;;;;23.23;14.90;;;;;;;;;;5054833;28;20231;-54
2022/10/08 08:31:16;;;;;;;19.02;14.57;;;;;;;;;;5053963;28;20226;-54
2022/10/08 08:33:48;;;;;;;20.60;15.90;;;;;;;;;;5054660;28;20234;-56
2022/10/08 08:36:23;;;;;;;20.60;15.18;;;;;;;;;;5054463;28;20261;-59
2022/10/08 08:38:50;;;;;;;24.75;16.20;;;;;;;;;;5059393;28;20187;-53
2022/10/08 08:41:32;;;;;;;21.80;14.98;;;;;;;;;;5058439;28;20277;-57
2022/10/08 08:44:01;;;;;;;22.13;15.23;;;;;;;;;;5058881;28;20257;-57
2022/10/08 08:46:35;;;;;;;23.23;15.65;;;;;;;;;;5058176;28;20204;-59
2022/10/08 08:49:18;;;;;;;21.65;16.08;;;;;;;;;;5058252;28;20304;-57
2022/10/08 08:51:45;;;;;;;22.85;15.20;;;;;;;;;;5056624;28;20203;-55
2022/10/08 08:54:12;;;;;;;20.05;15.60;;;;;;;;;;5057273;28;20249;-59
2022/10/08 08:56:39;;;;;;;19.08;15.13;;;;;;;;;;5055800;28;20261;-59
2022/10/08 08:59:26;;;;;;;23.60;15.43;;;;;;;;;;5056243;28;20227;-60
2022/10/08 09:01:56;;;;;;;15.85;13.05;;;;;;;;;;5055616;28;20875;-57
2022/10/08 09:05:00;;;;;;;21.05;12.90;;;;;;;;;;5056096;28;20200;-57
2022/10/08 09:07:35;;;;;;;18.00;13.45;;;;;;;;;;5000242;28;20224;-60
2022/10/08 09:10:08;;;;;;;20.05;13.07;;;;;;;;;;4999746;28;20217;-57
2022/10/08 09:12:42;;;;;;;17.25;13.05;;;;;;;;;;5011994;28;20739;-51
2022/10/08 09:15:19;;;;;;;17.00;12.48;;;;;;;;;;5016040;28;20534;-58
2022/10/08 09:17:50;;;;;;;17.48;12.98;;;;;;;;;;5010561;28;20593;-58
2022/10/08 09:20:20;;;;;;;19.52;14.02;;;;;;;;;;4999832;28;20501;-59
2022/10/08 09:22:49;;;;;;;17.05;13.63;;;;;;;;;;4991669;28;20284;-58
2022/10/08 09:25:19;;;;;;;15.43;13.20;;;;;;;;;;5016317;28;20205;-58
2022/10/08 09:27:55;;;;;;;16.45;12.25;;;;;;;;;;5016333;28;20295;-60
2022/10/08 09:30:39;;;;;;;20.55;13.20;;;;;;;;;;5015720;28;20259;-59
2022/10/08 09:33:19;;;;;;;15.57;11.80;;;;;;;;;;5004082;28;20210;-60
2022/10/08 09:35:50;;;;;;;15.55;12.30;;;;;;;;;;4979971;28;20201;-61
2022/10/08 09:38:25;;;;;;;21.92;12.27;;;;;;;;;;5003402;28;20221;-58
2022/10/08 09:41:06;;;;;;;19.98;12.88;;;;;;;;;;5012045;28;20200;-53
2022/10/08 09:44:12;;;;;;;16.40;12.65;;;;;;;;;;5058438;28;20203;-59
2022/10/08 09:46:40;;;;;;;20.58;12.43;;;;;;;;;;5056812;28;20200;-57
2022/10/08 09:49:35;;;;;;;15.48;11.77;;;;;;;;;;5056259;28;20661;-53
2022/10/08 09:52:19;;;;;;;16.67;11.70;;;;;;;;;;5051493;28;20208;-55
2022/10/08 09:55:06;;;;;;;17.60;12.48;;;;;;;;;;5057435;28;20188;-58
2022/10/08 09:57:40;;;;;;;15.75;12.32;;;;;;;;;;5037433;28;20203;-59
2022/10/08 10:00:25;;;;;;;16.17;12.07;;;;;;;;;;5040216;28;20228;-57
2022/10/08 10:02:54;;;;;;;16.60;12.18;;;;;;;;;;5036423;28;20258;-54
2022/10/08 10:05:29;;;;;;;19.33;11.88;;;;;;;;;;5055862;28;20200;-59
2022/10/08 10:07:56;;;;;;;15.70;12.32;;;;;;;;;;5055170;28;20215;-60
2022/10/08 10:10:34;;;;;;;15.43;12.18;;;;;;;;;;5054847;28;20227;-58
2022/10/08 10:13:20;;;;;;;17.02;11.52;;;;;;;;;;5055726;28;20238;-57
2022/10/08 10:16:09;;;;;;;13.88;11.40;;;;;;;;;;5054253;28;20200;-59
2022/10/08 10:18:52;;;;;;;14.35;11.63;;;;;;;;;;5053729;28;20293;-58
2022/10/08 10:21:26;;;;;;;15.63;10.50;;;;;;;;;;5054236;28;20189;-60
2022/10/08 10:24:11;;;;;;;15.13;10.80;;;;;;;;;;5054302;28;20199;-60
2022/10/08 10:26:41;;;;;;;18.38;11.63;;;;;;;;;;5054632;28;20188;-59
2022/10/08 10:29:13;;;;;;;22.60;14.25;;;;;;;;;;5055417;28;20223;-60
2022/10/08 10:31:58;;;;;;;16.25;11.90;;;;;;;;;;5054507;28;20207;-60
2022/10/08 10:34:31;;;;;;;29.38;19.67;;;;;;;;;;5054376;28;20207;-60
2022/10/08 10:37:00;;;;;;;22.58;19.35;;;;;;;;;;5052028;28;20273;-58
2022/10/08 10:39:37;;;;;;;15.40;10.45;;;;;;;;;;5054394;28;20206;-59
2022/10/08 10:42:20;;;;;;;13.55;9.73;;;;;;;;;;5053318;28;20211;-60
2022/10/08 10:44:57;;;;;;;16.08;10.70;;;;;;;;;;5051572;28;20211;-59
2022/10/08 10:47:29;;;;;;;24.65;17.90;;;;;;;;;;5048180;28;20191;-59
2022/10/08 10:50:01;;;;;;;14.57;11.77;;;;;;;;;;5050714;28;20208;-60
2022/10/08 10:52:44;;;;;;;72.68;64.78;;;;;;;;;;5047294;28;20268;-59
2022/10/08 10:55:21;;;;;;;14.95;12.88;;;;;;;;;;5040328;28;20215;-59
2022/10/08 10:58:33;;;;;;;13.07;10.73;;;;;;;;;;5036412;28;20199;-59
2022/10/08 11:01:26;;;;;;;14.38;11.75;;;;;;;;;;5011537;28;20251;-58
2022/10/08 11:04:27;;;;;;;213.38;190.98;;;;;;;;;;4996677;28;20271;-58
2022/10/08 11:07:12;;;;;;;61.13;54.60;;;;;;;;;;5008052;28;20620;-58
2022/10/08 11:10:28;;;;;;;19.65;15.95;;;;;;;;;;5009184;28;20292;-57
2022/10/08 11:13:16;;;;;;;24.30;17.00;;;;;;;;;;4976756;28;20239;-58
2022/10/08 11:15:51;;;;;;;36.67;32.33;;;;;;;;;;5011463;28;20256;-59
2022/10/08 11:18:31;;;;;;;93.00;83.30;;;;;;;;;;4995181;28;20201;-58
2022/10/08 11:21:20;;;;;;;25.65;19.40;;;;;;;;;;5009625;28;20205;-59
2022/10/08 11:24:08;;;;;;;14.05;11.07;;;;;;;;;;4995909;28;20193;-59
2022/10/08 11:26:46;;;;;;;12.02;8.85;;;;;;;;;;5011559;28;20666;-58
2022/10/08 11:29:56;;;;;;;13.50;8.63;;;;;;;;;;5011749;28;20213;-58
2022/10/08 11:32:25;;;;;;;17.73;10.00;;;;;;;;;;5007521;28;20206;-58
2022/10/08 11:34:56;;;;;;;15.45;10.65;;;;;;;;;;4990824;28;20568;-60
2022/10/08 11:37:33;;;;;;;12.10;7.85;;;;;;;;;;5009736;28;20196;-55
2022/10/08 11:40:13;;;;;;;15.90;10.35;;;;;;;;;;5053170;28;20183;-59
2022/10/08 11:42:49;;;;;;;16.38;9.85;;;;;;;;;;5050299;28;20687;-56
2022/10/08 11:45:22;;;;;;;12.90;9.20;;;;;;;;;;5050001;28;20211;-60
2022/10/08 11:47:53;;;;;;;10.27;7.10;;;;;;;;;;5053523;28;20220;-59
2022/10/08 11:50:39;;;;;;;10.57;6.93;;;;;;;;;;5053286;28;20188;-58
2022/10/08 11:53:09;;;;;;;10.25;7.13;;;;;;;;;;5051289;28;20227;-60
2022/10/08 11:55:37;;;;;;;9.80;7.05;;;;;;;;;;5053191;28;20223;-66
2022/10/08 11:58:14;;;;;;;11.80;8.32;;;;;;;;;;5050810;28;20257;-63
2022/10/08 12:00:44;;;;;;;13.93;9.48;;;;;;;;;;5052518;28;20288;-65
2022/10/08 12:03:21;;;;;;;23.38;11.23;;;;;;;;;;5053237;28;20291;-64
2022/10/08 12:05:52;;;;;;;14.70;7.75;;;;;;;;;;5053824;28;20184;-60
2022/10/08 12:08:53;;;;;;;18.13;8.02;;;;;;;;;;5052359;28;20626;-63
2022/10/08 12:11:34;;;;;;;16.63;7.93;;;;;;;;;;5053464;28;20207;-63
2022/10/08 12:14:09;;;;;;;12.13;7.20;;;;;;;;;;5050527;28;20275;-63
2022/10/08 12:16:46;;;;;;;10.73;7.38;;;;;;;;;;5052530;28;20257;-64
2022/10/08 12:19:31;;;;;;;14.20;7.63;;;;;;;;;;5053359;28;20191;-61
2022/10/08 12:22:14;;;;;;;12.60;8.40;;;;;;;;;;5052807;28;20705;-61
2022/10/08 12:24:43;;;;;;;12.57;7.65;;;;;;;;;;5050128;28;20204;-61
2022/10/08 12:27:16;;;;;;;16.83;8.60;;;;;;;;;;5050729;28;20191;-63
2022/10/08 12:30:13;;;;;;;18.48;9.57;;;;;;;;;;5053105;28;20239;-62
2022/10/08 12:32:40;;;;;;;15.02;8.82;;;;;;;;;;5051475;28;20196;-62
2022/10/08 12:35:32;;;;;;;14.75;8.48;;;;;;;;;;5052657;28;20214;-63
2022/10/08 12:38:14;;;;;;;15.70;7.60;;;;;;;;;;5051519;28;20192;-63
2022/10/08 12:40:47;;;;;;;14.23;8.50;;;;;;;;;;5050669;28;20575;-61
2022/10/08 12:43:25;;;;;;;15.73;9.48;;;;;;;;;;5050507;28;20548;-64
2022/10/08 12:46:22;;;;;;;15.43;9.40;;;;;;;;;;5050493;28;20282;-61
2022/10/08 12:48:53;;;;;;;13.88;10.85;;;;;;;;;;5052734;28;20223;-60
2022/10/08 12:51:35;;;;;;;18.25;11.75;;;;;;;;;;5052992;28;20196;-64
2022/10/08 12:54:03;;;;;;;13.85;9.55;;;;;;;;;;5051697;28;20188;-61
2022/10/08 12:56:30;;;;;;;14.63;8.57;;;;;;;;;;5052397;28;20525;-63
2022/10/08 12:59:00;;;;;;;20.27;8.77;;;;;;;;;;5052072;28;20212;-59
2022/10/08 13:01:27;;;;;;;21.23;9.82;;;;;;;;;;5051358;28;20199;-62
2022/10/08 13:04:17;;;;;;;19.38;9.85;;;;;;;;;;5052826;28;20200;-59
2022/10/08 13:06:46;;;;;;;23.55;10.63;;;;;;;;;;5050808;28;20196;-62
2022/10/08 13:09:34;;;;;;;13.75;9.38;;;;;;;;;;5051842;28;20208;-60
2022/10/08 13:12:04;;;;;;;17.38;10.05;;;;;;;;;;5050918;28;20196;-59
2022/10/08 13:14:34;;;;;;;36.53;17.35;;;;;;;;;;5052727;28;20260;-61
2022/10/08 13:17:01;;;;;;;20.33;13.38;;;;;;;;;;5052826;28;20619;-61
2022/10/08 13:19:37;;;;;;;90.18;65.10;;;;;;;;;;5051593;28;20212;-65
2022/10/08 13:22:07;;;;;;;42.92;38.15;;;;;;;;;;5052039;28;20188;-60
2022/10/08 13:24:41;;;;;;;21.17;18.90;;;;;;;;;;5056279;28;20211;-61
2022/10/08 13:27:40;;;;;;;17.75;14.32;;;;;;;;;;5057389;28;20192;-61
2022/10/08 13:30:27;;;;;;;23.05;18.27;;;;;;;;;;5013719;28;20229;-67
2022/10/08 13:33:20;;;;;;;13.40;9.82;;;;;;;;;;5006211;28;20220;-60
2022/10/08 13:36:01;;;;;;;14.43;9.00;;;;;;;;;;5010663;28;20205;-65
2022/10/08 13:38:32;;;;;;;17.48;9.90;;;;;;;;;;4998783;28;20632;-67
2022/10/08 13:41:07;;;;;;;13.13;10.32;;;;;;;;;;4994794;28;20659;-65
2022/10/08 13:43:35;;;;;;;15.55;9.70;;;;;;;;;;5013043;28;20258;-68
2022/10/08 13:46:02;;;;;;;22.98;9.82;;;;;;;;;;5013943;28;20237;-62
2022/10/08 13:48:29;;;;;;;18.88;10.07;;;;;;;;;;5014469;28;20652;-60
2022/10/08 13:50:57;;;;;;;13.75;10.68;;;;;;;;;;5013064;28;20260;-62
2022/10/08 13:53:25;;;;;;;13.90;10.63;;;;;;;;;;5013181;28;20675;-62
2022/10/08 13:55:51;;;;;;;22.30;12.57;;;;;;;;;;4997652;28;20324;-66
2022/10/08 13:58:19;;;;;;;19.50;13.40;;;;;;;;;;5014223;28;20299;-65
2022/10/08 14:00:46;;;;;;;15.80;13.43;;;;;;;;;;5011472;28;20237;-63
2022/10/08 14:03:14;;;;;;;18.88;13.45;;;;;;;;;;5013870;28;20304;-62
2022/10/08 14:05:46;;;;;;;18.70;15.10;;;;;;;;;;5032384;28;20199;-65
2022/10/08 14:08:19;;;;;;;15.18;10.75;;;;;;;;;;5055719;28;20196;-64
2022/10/08 14:10:46;;;;;;;19.95;17.70;;;;;;;;;;5051743;28;20277;-59
2022/10/08 14:13:14;;;;;;;23.85;14.30;;;;;;;;;;5056310;28;20663;-59
2022/10/08 14:15:41;;;;;;;15.73;11.60;;;;;;;;;;5056439;28;20208;-60
2022/10/08 14:18:08;;;;;;;14.15;11.77;;;;;;;;;;5056642;28;20619;-60
2022/10/08 14:20:36;;;;;;;21.17;17.30;;;;;;;;;;5056729;28;20655;-60
2022/10/08 14:23:03;;;;;;;20.38;15.13;;;;;;;;;;5056244;28;20249;-59
2022/10/08 14:25:30;;;;;;;22.05;18.77;;;;;;;;;;5056761;28;20271;-60
2022/10/08 14:27:59;;;;;;;23.17;16.70;;;;;;;;;;5056534;28;20200;-59
2022/10/08 14:30:26;;;;;;;33.13;27.65;;;;;;;;;;5056256;28;20666;-59
2022/10/08 14:32:54;;;;;;;51.20;44.10;;;;;;;;;;5036743;28;20193;-60
2022/10/08 14:35:21;;;;;;;30.85;22.55;;;;;;;;;;5052558;28;20203;-60
2022/10/08 14:37:48;;;;;;;23.55;19.40;;;;;;;;;;5056187;28;20546;-59
2022/10/08 14:40:19;;;;;;;20.65;15.48;;;;;;;;;;5056538;28;20199;-60
2022/10/08 14:42:46;;;;;;;21.75;19.27;;;;;;;;;;5054172;28;20208;-60
2022/10/08 14:45:14;;;;;;;17.70;11.77;;;;;;;;;;5042920;28;20204;-60
2022/10/08 14:47:41;;;;;;;20.23;14.73;;;;;;;;;;5047952;28;20207;-64
2022/10/08 14:50:08;;;;;;;19.08;12.75;;;;;;;;;;5055622;28;20226;-66
2022/10/08 14:52:36;;;;;;;17.85;13.13;;;;;;;;;;5045331;28;20204;-64
2022/10/08 14:55:10;;;;;;;16.80;13.60;;;;;;;;;;5049260;28;20626;-65